Time;durP1;ratioP1;P1;durP2;ratioP2;P2;SDS_P1;SDS_P2;PMS_P1;PMS_P2;Temp;Humidity;BMP_temperature;BMP_pressure;BME280_temperature;BME280_humidity;BME280_pressure;Samples;Min_cycle;Max_cycle;Signal;HPM_P1;HPM_P2
2023/02/15 00:00:26;;;;;;;8.6;4.4;;;;;;;1.21;80.31055;949.446;;;;
2023/02/15 00:02:53;;;;;;;5.5;3.7;;;;;;;1.13;80.86621;949.4467;;;;
2023/02/15 00:05:22;;;;;;;5.7;3.4;;;;;;;1.12;81.07715;949.3886;;;;
2023/02/15 00:07:47;;;;;;;4.7;2.9;;;;;;;1.12;80.98535;949.3123;;;;
2023/02/15 00:10:18;;;;;;;4;2.7;;;;;;;1.08;81.23535;949.3339;;;;
2023/02/15 00:12:51;;;;;;;4.5;2.6;;;;;;;1.01;81.48926;949.3555;;;;
2023/02/15 00:15:16;;;;;;;6.5;2.8;;;;;;;0.91;81.93945;949.2858;;;;
2023/02/15 00:17:49;;;;;;;4.2;2.5;;;;;;;0.96;81.79395;949.2081;;;;
2023/02/15 00:20:23;;;;;;;5.1;2.8;;;;;;;1.01;81.43359;949.1956;;;;
2023/02/15 00:22:51;;;;;;;5;2.6;;;;;;;0.99;81.4541;949.1403;;;;
2023/02/15 00:25:19;;;;;;;3.7;2.4;;;;;;;1.06;81.25488;949.1605;;;;
2023/02/15 00:27:45;;;;;;;4.7;2.9;;;;;;;1.08;81.00098;949.1156;;;;
2023/02/15 00:30:20;;;;;;;4.7;3;;;;;;;1.11;80.7832;949.1166;;;;
2023/02/15 00:32:49;;;;;;;4.3;2.9;;;;;;;1.14;80.50879;949.093;;;;
2023/02/15 00:35:14;;;;;;;5.4;2.7;;;;;;;1.14;80.47559;949.1479;;;;
2023/02/15 00:37:41;;;;;;;4.5;2.8;;;;;;;1.11;80.40332;949.1411;;;;
2023/02/15 00:40:30;;;;;;;5.5;3.1;;;;;;;1.05;80.4707;949.1561;;;;
2023/02/15 00:43:13;;;;;;;4.9;2.9;;;;;;;0.96;80.75488;949.046;;;;
2023/02/15 00:45:53;;;;;;;5.8;2.9;;;;;;;0.91;81.05762;949.0764;;;;
2023/02/15 00:48:25;;;;;;;5.1;2.8;;;;;;;0.88;81.1748;949.0264;;;;
2023/02/15 00:55:52;;;;;;;4.2;2.2;;;;;;;1.13;80.00586;949.0284;;;;
2023/02/15 00:58:19;;;;;;;59.6;29.8;;;;;;;1.18;79.60156;949.0478;;;;
2023/02/15 01:00:50;;;;;;;27.5;13.3;;;;;;;1.15;79.49707;949.0353;;;;
2023/02/15 01:03:19;;;;;;;6.3;3.6;;;;;;;0.98;80.32324;949.0302;;;;
2023/02/15 01:05:44;;;;;;;56.1;24;;;;;;;0.96;80.46484;948.9619;;;;
2023/02/15 01:08:13;;;;;;;4.4;2.8;;;;;;;0.77;81.1875;948.9796;;;;
2023/02/15 01:10:38;;;;;;;4;2.4;;;;;;;0.71;81.6123;948.9861;;;;
2023/02/15 01:13:03;;;;;;;11.3;6.2;;;;;;;0.75;81.44141;948.9902;;;;
2023/02/15 01:15:38;;;;;;;3.3;1.8;;;;;;;0.82;81.08496;948.9342;;;;
2023/02/15 01:18:05;;;;;;;2.6;1.6;;;;;;;0.8;80.99219;948.9091;;;;
2023/02/15 01:20:38;;;;;;;3.6;1.8;;;;;;;0.84;80.9209;948.8759;;;;
2023/02/15 01:24:02;;;;;;;3.2;2;;;;;;;0.87;80.78418;948.9126;;;;
2023/02/15 01:26:27;;;;;;;2.8;1.9;;;;;;;0.86;80.68066;948.8759;;;;
2023/02/15 01:28:55;;;;;;;3.5;2.2;;;;;;;0.87;80.42676;948.8875;;;;
2023/02/15 01:31:21;;;;;;;2.9;2.2;;;;;;;0.93;80.15625;948.8608;;;;
2023/02/15 01:33:50;;;;;;;6.1;3.6;;;;;;;0.89;79.95996;948.8195;;;;
2023/02/15 01:36:17;;;;;;;3.9;2.6;;;;;;;0.72;80.77539;948.7707;;;;
2023/02/15 01:38:41;;;;;;;6.2;3.6;;;;;;;0.71;80.85352;948.7494;;;;
2023/02/15 01:44:45;;;;;;;17.9;8.3;;;;;;;0.62;81.34766;948.7283;;;;
2023/02/15 01:47:13;;;;;;;5;2.8;;;;;;;0.59;81.58789;948.7059;;;;
2023/02/15 01:49:41;;;;;;;29;14.8;;;;;;;0.64;81.44043;948.6763;;;;
2023/02/15 01:52:08;;;;;;;7.1;3.2;;;;;;;0.66;81.31055;948.6149;;;;
2023/02/15 01:54:36;;;;;;;41.7;19.1;;;;;;;0.59;81.44336;948.6245;;;;
2023/02/15 01:57:02;;;;;;;10.2;5.1;;;;;;;0.52;81.83105;948.6566;;;;
2023/02/15 01:59:27;;;;;;;2.4;1.4;;;;;;;0.51;81.82715;948.5714;;;;
2023/02/15 02:01:53;;;;;;;2.8;1.6;;;;;;;0.51;81.62793;948.5394;;;;
2023/02/15 02:08:00;;;;;;;42.4;39.1;;;;;;;0.46;81.46191;948.4469;;;;
2023/02/15 02:10:32;;;;;;;12.1;8.4;;;;;;;0.45;81.53809;948.476;;;;
2023/02/15 02:12:57;;;;;;;3.4;2.2;;;;;;;0.45;81.59375;948.313;;;;
2023/02/15 02:15:34;;;;;;;2.7;1.8;;;;;;;0.53;81.23926;948.3172;;;;
2023/02/15 02:17:59;;;;;;;2.9;1.7;;;;;;;0.53;81.17285;948.3203;;;;
2023/02/15 02:20:30;;;;;;;39.3;21.3;;;;;;;0.55;80.97852;948.2978;;;;
2023/02/15 02:26:09;;;;;;;2.7;1.8;;;;;;;0.52;80.88281;948.2846;;;;
2023/02/15 02:28:34;;;;;;;3.1;2.2;;;;;;;0.39;81.2373;948.2365;;;;
2023/02/15 02:30:59;;;;;;;2.9;2.1;;;;;;;0.43;81.21094;948.2124;;;;
2023/02/15 02:33:25;;;;;;;2.8;2.2;;;;;;;0.5;80.94629;948.2304;;;;
2023/02/15 02:35:54;;;;;;;2.7;2;;;;;;;0.46;80.84961;948.245;;;;
2023/02/15 02:38:19;;;;;;;2.7;1.8;;;;;;;0.47;80.63965;948.2156;;;;
2023/02/15 02:40:47;;;;;;;2.6;1.9;;;;;;;0.41;80.84863;948.1727;;;;
2023/02/15 02:43:17;;;;;;;5.2;3;;;;;;;0.34;81.34961;948.2252;;;;
2023/02/15 02:45:42;;;;;;;2.7;1.6;;;;;;;0.36;81.29785;948.1951;;;;
2023/02/15 02:48:07;;;;;;;3.1;1.8;;;;;;;0.3;81.62109;948.1956;;;;
2023/02/15 02:50:32;;;;;;;3.4;2.3;;;;;;;0.37;81.56641;948.181;;;;
2023/02/15 02:53:02;;;;;;;2.7;1.7;;;;;;;0.37;81.47754;948.1666;;;;
2023/02/15 02:55:27;;;;;;;1.9;1.4;;;;;;;0.28;81.73926;948.1564;;;;
2023/02/15 02:58:04;;;;;;;14.6;9.1;;;;;;;0.32;81.625;948.158;;;;
2023/02/15 03:00:30;;;;;;;2.6;1.7;;;;;;;0.43;80.77637;948.1758;;;;
2023/02/15 03:02:59;;;;;;;3.3;2.1;;;;;;;0.43;80.73145;948.2234;;;;
2023/02/15 03:05:25;;;;;;;13.1;7.4;;;;;;;0.55;80.18555;948.2185;;;;
2023/02/15 03:07:50;;;;;;;3.8;2.6;;;;;;;0.62;79.77637;948.1339;;;;
2023/02/15 03:10:15;;;;;;;2.5;2.1;;;;;;;0.64;79.74512;948.2164;;;;
2023/02/15 03:12:43;;;;;;;2.1;1.7;;;;;;;0.62;79.69824;948.2076;;;;
2023/02/15 03:15:08;;;;;;;3.7;2.1;;;;;;;0.54;79.74805;948.2623;;;;
2023/02/15 03:17:44;;;;;;;6.5;3.5;;;;;;;0.63;79.24121;948.2715;;;;
2023/02/15 03:20:09;;;;;;;4.1;2.9;;;;;;;0.65;79.02148;948.2327;;;;
2023/02/15 03:22:35;;;;;;;4.2;1.8;;;;;;;0.57;79.51953;948.2492;;;;
2023/02/15 03:25:00;;;;;;;2.8;2.1;;;;;;;0.64;78.8877;948.2941;;;;
2023/02/15 03:27:25;;;;;;;8;3.8;;;;;;;0.6;78.62207;948.2878;;;;
2023/02/15 03:29:50;;;;;;;3.5;2.2;;;;;;;0.55;79.06934;948.253;;;;
2023/02/15 03:32:15;;;;;;;1.9;1.4;;;;;;;0.5;79.0166;948.3435;;;;
2023/02/15 03:34:40;;;;;;;2.1;1.3;;;;;;;0.29;79.71387;948.4211;;;;
2023/02/15 03:37:51;;;;;;;2.3;1.6;;;;;;;0.28;80.20215;948.3767;;;;
2023/02/15 03:42:43;;;;;;;3.3;2.4;;;;;;;0.22;80.53418;948.4658;;;;
2023/02/15 03:45:08;;;;;;;4.9;3.1;;;;;;;0.29;80.29297;948.4609;;;;
2023/02/15 03:47:38;;;;;;;19.4;9.5;;;;;;;0.36;80.32715;948.5648;;;;
2023/02/15 03:50:03;;;;;;;8;3.8;;;;;;;0.31;80.31934;948.5244;;;;
2023/02/15 03:52:28;;;;;;;5.6;3;;;;;;;0.29;80.2041;948.5283;;;;
2023/02/15 03:54:56;;;;;;;3.7;2.6;;;;;;;0.21;80.13281;948.5391;;;;
2023/02/15 04:02:12;;;;;;;4.9;3;;;;;;;0.09;80.64355;948.5566;;;;
2023/02/15 04:04:43;;;;;;;3.7;2.4;;;;;;;0.12;80.73828;948.5842;;;;
2023/02/15 04:07:08;;;;;;;4.8;2.4;;;;;;;0.12;80.40332;948.5664;;;;
2023/02/15 04:12:02;;;;;;;4.3;2.2;;;;;;;0.09;80.64355;948.6152;;;;
2023/02/15 04:16:52;;;;;;;4.6;2.5;;;;;;;0.14;80.25293;948.694;;;;
2023/02/15 04:26:43;;;;;;;2.8;2;;;;;;;0.06;80.5293;948.6824;;;;
2023/02/15 04:32:40;;;;;;;4.2;2.8;;;;;;;0.05;80.58105;948.7512;;;;
2023/02/15 04:35:14;;;;;;;3;2.2;;;;;;;0.1;80.69043;948.8335;;;;
2023/02/15 04:38:33;;;;;;;3.8;2.3;;;;;;;0.16;80.3125;948.8197;;;;
2023/02/15 04:42:04;;;;;;;6.2;3.2;;;;;;;0.11;80.35938;948.8057;;;;
2023/02/15 04:44:29;;;;;;;7.3;3.9;;;;;;;0.12;80.22754;948.8142;;;;
2023/02/15 04:46:58;;;;;;;7.6;4.3;;;;;;;0.17;79.82324;948.6863;;;;
2023/02/15 04:49:23;;;;;;;6.1;3.8;;;;;;;0.19;79.77148;948.8119;;;;
2023/02/15 04:51:51;;;;;;;5.4;3.3;;;;;;;0.1;80.16602;948.7139;;;;
2023/02/15 04:54:16;;;;;;;7.4;4;;;;;;;0.03;80.29883;948.8145;;;;
2023/02/15 04:56:46;;;;;;;5.5;4;;;;;;;0.02;80.25293;948.7314;;;;
2023/02/15 04:59:11;;;;;;;4;2.4;;;;;;;-0.1;80.53125;948.7648;;;;
2023/02/15 05:01:36;;;;;;;3.9;2.7;;;;;;;-0.18;80.91504;948.7266;;;;
2023/02/15 05:04:02;;;;;;;3.4;2.4;;;;;;;-0.23;81.08301;948.7188;;;;
2023/02/15 05:06:26;;;;;;;4.1;2;;;;;;;-0.24;81.31641;948.6428;;;;
2023/02/15 05:08:53;;;;;;;2.7;2.4;;;;;;;-0.23;81.30664;948.7386;;;;
2023/02/15 05:11:18;;;;;;;3.5;2.6;;;;;;;-0.32;81.73438;948.7125;;;;
2023/02/15 05:13:48;;;;;;;4.2;2.8;;;;;;;-0.31;81.72559;948.7169;;;;
2023/02/15 05:16:13;;;;;;;4.7;2.8;;;;;;;-0.25;81.61523;948.7303;;;;
2023/02/15 05:29:45;;;;;;;4;2.5;;;;;;;-0.15;80.58789;948.8013;;;;
2023/02/15 05:32:10;;;;;;;4.9;2.7;;;;;;;-0.02;79.79883;948.8324;;;;
2023/02/15 05:34:37;;;;;;;8.5;5.2;;;;;;;-0.07;80.13379;948.757;;;;
2023/02/15 05:37:02;;;;;;;7.9;3.8;;;;;;;-0.1;79.90723;948.8221;;;;
2023/02/15 05:39:28;;;;;;;6.3;3.5;;;;;;;-0.11;79.85938;948.8937;;;;
2023/02/15 05:41:53;;;;;;;5.8;3.6;;;;;;;0;79.31152;948.8682;;;;
2023/02/15 05:44:22;;;;;;;4.8;3.6;;;;;;;0.11;78.72168;948.8674;;;;
2023/02/15 05:47:41;;;;;;;4.6;3.6;;;;;;;0.17;78.27441;948.8685;;;;
2023/02/15 05:50:14;;;;;;;6.7;4.4;;;;;;;0.11;78.08398;948.8326;;;;
2023/02/15 05:52:43;;;;;;;6.1;4.2;;;;;;;-0.03;78.52734;948.9971;;;;
2023/02/15 05:55:08;;;;;;;5.5;3.9;;;;;;;-0.1;78.87012;948.8859;;;;
2023/02/15 05:57:34;;;;;;;6.6;4.1;;;;;;;-0.23;79.41602;948.9221;;;;
2023/02/15 06:00:58;;;;;;;6.7;4.3;;;;;;;-0.21;79.51758;948.8614;;;;
2023/02/15 06:03:28;;;;;;;9.2;5;;;;;;;-0.31;80.01074;948.9119;;;;
2023/02/15 06:05:51;;;;;;;7.4;4.6;;;;;;;-0.28;80.02734;948.9183;;;;
2023/02/15 06:08:21;;;;;;;9.3;4.7;;;;;;;-0.27;80.17383;948.9415;;;;
2023/02/15 06:10:52;;;;;;;7;3.8;;;;;;;-0.26;80.29785;948.9338;;;;
2023/02/15 06:13:21;;;;;;;4.8;3.7;;;;;;;-0.22;80.1416;948.9624;;;;
2023/02/15 06:15:54;;;;;;;6.3;4;;;;;;;-0.21;80.02051;948.9703;;;;
2023/02/15 06:18:19;;;;;;;6.9;3.4;;;;;;;-0.23;79.97266;948.8735;;;;
2023/02/15 06:20:45;;;;;;;5.1;2.8;;;;;;;-0.32;80.39941;948.8981;;;;
2023/02/15 06:23:17;;;;;;;4.3;3.4;;;;;;;-0.23;79.9707;948.9874;;;;
2023/02/15 06:25:50;;;;;;;4.7;2.9;;;;;;;-0.28;80.36328;948.9374;;;;
2023/02/15 06:28:19;;;;;;;7.1;3.1;;;;;;;-0.35;81.02832;948.9749;;;;
2023/02/15 06:30:44;;;;;;;7.1;3.5;;;;;;;-0.34;80.75195;948.9788;;;;
2023/02/15 06:33:12;;;;;;;4.5;3;;;;;;;-0.36;80.7041;948.9508;;;;
2023/02/15 06:35:37;;;;;;;5.9;2.9;;;;;;;-0.47;81.25977;948.9936;;;;
2023/02/15 06:38:07;;;;;;;4.8;3.4;;;;;;;-0.5;81.75586;949.0137;;;;
2023/02/15 06:40:39;;;;;;;7;4.9;;;;;;;-0.37;81.46973;949.0089;;;;
2023/02/15 06:43:11;;;;;;;11.4;6.5;;;;;;;-0.22;80.9082;949.0193;;;;
2023/02/15 06:45:42;;;;;;;9.3;6.1;;;;;;;0.02;82.12402;949.0619;;;;
2023/02/15 06:48:15;;;;;;;8.3;5.5;;;;;;;0.15;79.99805;949.0758;;;;
2023/02/15 06:50:43;;;;;;;11.3;6.2;;;;;;;0.3;78.8125;948.9633;;;;
2023/02/15 06:53:20;;;;;;;9.5;5.8;;;;;;;0.36;77.81934;949.0505;;;;
2023/02/15 06:55:49;;;;;;;22.3;9.5;;;;;;;0.42;77.44043;949.0961;;;;
2023/02/15 06:58:15;;;;;;;11.9;7.6;;;;;;;0.39;77.03418;948.9945;;;;
2023/02/15 07:00:45;;;;;;;13;8.9;;;;;;;0.36;77.68555;949.1038;;;;
2023/02/15 07:03:10;;;;;;;10.2;5.7;;;;;;;0.7;76.72168;949.0432;;;;
2023/02/15 07:05:35;;;;;;;5.2;3.6;;;;;;;1.27;74.71387;949.0663;;;;
2023/02/15 07:08:05;;;;;;;6.7;4.4;;;;;;;1.74;72.7832;949.0472;;;;
2023/02/15 07:10:31;;;;;;;4.2;3.1;;;;;;;2.08;71.10645;949.0062;;;;
2023/02/15 07:12:59;;;;;;;16.7;8.1;;;;;;;2.37;69.45117;948.912;;;;
2023/02/15 07:15:28;;;;;;;14.1;7.4;;;;;;;2.43;69.55273;948.9655;;;;
2023/02/15 07:17:54;;;;;;;8.2;4.3;;;;;;;2.72;67.87207;948.9679;;;;
2023/02/15 07:20:19;;;;;;;3.5;2.7;;;;;;;3.34;67.48828;948.9263;;;;
2023/02/15 07:22:44;;;;;;;7.4;4.5;;;;;;;3.6;64.79004;948.9469;;;;
2023/02/15 07:25:17;;;;;;;7.8;5;;;;;;;3.52;64.98047;948.9119;;;;
2023/02/15 07:27:49;;;;;;;6;3.6;;;;;;;3.56;64.75;948.836;;;;
2023/02/15 07:30:19;;;;;;;7.8;3.4;;;;;;;3.38;65.08203;948.9019;;;;
2023/02/15 07:35:21;;;;;;;8.9;4.2;;;;;;;3.81;68.62109;948.8388;;;;
2023/02/15 07:37:46;;;;;;;7.6;4.3;;;;;;;4.18;66.50977;948.842;;;;
2023/02/15 07:40:14;;;;;;;6.5;4.6;;;;;;;4.21;63.42969;948.8025;;;;
2023/02/15 07:42:44;;;;;;;9.6;5.9;;;;;;;4.34;63.14648;948.7321;;;;
2023/02/15 07:45:17;;;;;;;10.5;6.1;;;;;;;4.63;62.50195;948.8226;;;;
2023/02/15 07:47:47;;;;;;;8.8;5.9;;;;;;;5.08;60.82031;948.8222;;;;
2023/02/15 07:50:19;;;;;;;8.7;5.5;;;;;;;5.5;59.15332;948.7917;;;;
2023/02/15 07:52:47;;;;;;;10.4;6;;;;;;;5.76;57.91406;948.7271;;;;
2023/02/15 07:55:20;;;;;;;9.6;5.1;;;;;;;5.87;57.53418;948.6997;;;;
2023/02/15 07:57:50;;;;;;;8.4;4.2;;;;;;;5.93;57.06738;948.7208;;;;
2023/02/15 08:00:15;;;;;;;8.4;4;;;;;;;6.03;56.43652;948.6647;;;;
2023/02/15 08:02:46;;;;;;;6.3;3.7;;;;;;;6.48;54.21094;948.6361;;;;
2023/02/15 08:05:20;;;;;;;7.3;4.5;;;;;;;6.68;53.75;948.627;;;;
2023/02/15 08:07:50;;;;;;;5.3;3.4;;;;;;;7.09;52.41992;948.5895;;;;
2023/02/15 08:11:25;;;;;;;4.4;3;;;;;;;7.26;50.91016;948.5707;;;;
2023/02/15 08:12:46;;;;;;;8.7;3.5;;;;;;;7.51;51.14453;948.5458;;;;
2023/02/15 08:15:19;;;;;;;5.5;3;;;;;;;7.42;50.15918;948.5472;;;;
2023/02/15 08:17:50;;;;;;;5.4;3.5;;;;;;;7.06;52.23535;948.5161;;;;
2023/02/15 08:20:22;;;;;;;6.1;4.1;;;;;;;7.3;51.3125;948.5262;;;;
2023/02/15 08:22:47;;;;;;;9.5;4.5;;;;;;;7.43;51.62207;948.4967;;;;
2023/02/15 08:25:18;;;;;;;12.9;5.7;;;;;;;7.92;50.16016;948.347;;;;
2023/02/15 08:27:50;;;;;;;10.1;5.3;;;;;;;8.79;48.74902;948.4416;;;;
2023/02/15 08:30:15;;;;;;;13.3;4.5;;;;;;;9.43;46.55566;948.3691;;;;
2023/02/15 08:32:46;;;;;;;9.2;4.2;;;;;;;10.05;45.68652;948.3589;;;;
2023/02/15 08:35:17;;;;;;;8.2;3.7;;;;;;;10.52;44.25195;948.2912;;;;
2023/02/15 08:37:47;;;;;;;7.2;3.9;;;;;;;11.32;41.7041;948.282;;;;
2023/02/15 08:40:20;;;;;;;15.8;4.3;;;;;;;10.72;42.66309;948.2527;;;;
2023/02/15 08:42:52;;;;;;;17.1;5.2;;;;;;;10.01;43.36914;948.2141;;;;
2023/02/15 08:45:25;;;;;;;9.1;4.4;;;;;;;9.19;44.75293;948.2045;;;;
2023/02/15 08:47:47;;;;;;;13.7;4.8;;;;;;;8.86;46.51758;948.2608;;;;
2023/02/15 08:50:18;;;;;;;16;5.2;;;;;;;9.17;46.52734;948.2135;;;;
2023/02/15 08:52:43;;;;;;;11.2;4.7;;;;;;;9.04;46.26367;948.2819;;;;
2023/02/15 08:55:13;;;;;;;13.5;4.6;;;;;;;8.81;46.625;948.2544;;;;
2023/02/15 08:57:44;;;;;;;13.4;4.5;;;;;;;8.85;46.50488;948.2175;;;;
2023/02/15 09:00:07;;;;;;;11.1;4.3;;;;;;;8.67;46.32617;948.1553;;;;
2023/02/15 09:02:32;;;;;;;29.5;6.5;;;;;;;9.36;45.99023;948.1591;;;;
2023/02/15 09:04:57;;;;;;;14.5;3.8;;;;;;;9.79;44.46289;948.1705;;;;
2023/02/15 09:07:26;;;;;;;6.4;1.9;;;;;;;10.23;42.7168;948.1417;;;;
2023/02/15 09:09:52;;;;;;;4.3;1.1;;;;;;;9.84;39.9082;948.1117;;;;
2023/02/15 09:12:20;;;;;;;6.1;1.8;;;;;;;10.1;41.11914;948.1175;;;;
2023/02/15 09:14:45;;;;;;;7.1;1.7;;;;;;;10.82;39.4043;948.1351;;;;
2023/02/15 09:17:13;;;;;;;5.6;1.3;;;;;;;11.67;36.81445;948.1514;;;;
2023/02/15 09:19:44;;;;;;;7.8;1.8;;;;;;;12.79;35.33789;948.0984;;;;
2023/02/15 09:22:11;;;;;;;3.9;2;;;;;;;14.03;32.51465;947.9913;;;;
2023/02/15 09:24:36;;;;;;;4.9;1.4;;;;;;;13.96;32.41797;947.9774;;;;
2023/02/15 09:27:05;;;;;;;9.4;2.7;;;;;;;14.36;31.46875;947.9263;;;;
2023/02/15 09:29:30;;;;;;;2.1;1.1;;;;;;;14.68;30.73047;947.9375;;;;
2023/02/15 09:31:56;;;;;;;20.4;3.6;;;;;;;15.44;30.59961;947.9783;;;;
2023/02/15 09:34:21;;;;;;;3.9;1;;;;;;;15.41;29.53516;947.9867;;;;
2023/02/15 09:36:54;;;;;;;7.2;1.6;;;;;;;15.98;29.43457;947.9708;;;;
2023/02/15 09:39:25;;;;;;;2.1;1;;;;;;;15.4;28.89941;947.9609;;;;
2023/02/15 09:41:49;;;;;;;5.3;1.4;;;;;;;15.59;28.8418;947.9578;;;;
2023/02/15 09:44:18;;;;;;;1.3;0.9;;;;;;;15.56;30.50391;947.9077;;;;
2023/02/15 09:46:45;;;;;;;1.4;1;;;;;;;15.61;30.65723;947.9178;;;;
2023/02/15 09:49:11;;;;;;;0.9;0.7;;;;;;;16.23;30.14551;947.933;;;;
2023/02/15 09:51:37;;;;;;;1.6;1.1;;;;;;;17.49;28.79395;947.8973;;;;
2023/02/15 09:54:03;;;;;;;0.8;0.7;;;;;;;18.27;27.22949;947.9141;;;;
2023/02/15 09:56:31;;;;;;;5.5;1;;;;;;;18.58;26.3418;947.9167;;;;
2023/02/15 09:58:56;;;;;;;4.6;1.4;;;;;;;19.25;25.72949;947.8923;;;;
2023/02/15 10:01:21;;;;;;;3.2;1;;;;;;;19.98;25.66699;947.9396;;;;
2023/02/15 10:03:47;;;;;;;12;2.6;;;;;;;19.76;24.62793;947.932;;;;
2023/02/15 10:06:15;;;;;;;1.1;0.8;;;;;;;18.85;25.49707;947.8691;;;;
2023/02/15 10:08:42;;;;;;;2.3;0.6;;;;;;;19.1;25.3252;947.8359;;;;
2023/02/15 10:11:40;;;;;;;4.8;1;;;;;;;18.99;25.53906;947.8608;;;;
2023/02/15 10:13:34;;;;;;;1.6;1;;;;;;;18.78;25.24902;947.8677;;;;
2023/02/15 10:15:59;;;;;;;3.4;1.2;;;;;;;18.83;25.55371;947.8337;;;;
2023/02/15 10:18:30;;;;;;;4.2;1.4;;;;;;;17.47;26.1123;947.8337;;;;
2023/02/15 10:20:55;;;;;;;2.9;1.5;;;;;;;17.28;27.57422;947.7975;;;;
2023/02/15 10:23:23;;;;;;;5;2;;;;;;;16.41;27.55469;947.7903;;;;
2023/02/15 10:25:48;;;;;;;4.6;1.6;;;;;;;15.49;29.37988;947.782;;;;
2023/02/15 10:28:16;;;;;;;3;1.1;;;;;;;14.81;28.81445;947.731;;;;
2023/02/15 10:30:41;;;;;;;2.8;1.4;;;;;;;14.53;30.375;947.6697;;;;
2023/02/15 10:33:08;;;;;;;2.6;1.1;;;;;;;14.41;30.29688;947.6744;;;;
2023/02/15 10:35:31;;;;;;;1.7;1;;;;;;;14.7;29.69531;947.6756;;;;
2023/02/15 10:37:59;;;;;;;2.3;0.7;;;;;;;15.56;28.8291;947.6989;;;;
2023/02/15 10:40:23;;;;;;;2.6;0.9;;;;;;;16.59;27.39258;947.5818;;;;
2023/02/15 10:42:53;;;;;;;2.6;0.9;;;;;;;17.56;25.18945;947.5566;;;;
2023/02/15 10:45:21;;;;;;;2.3;1;;;;;;;17.88;25.15039;947.5033;;;;
2023/02/15 10:47:47;;;;;;;1.1;0.7;;;;;;;18.22;25.27441;947.5329;;;;
2023/02/15 10:50:15;;;;;;;2.9;0.7;;;;;;;18.31;25.31445;947.4509;;;;
2023/02/15 10:52:44;;;;;;;2.1;0.9;;;;;;;18.44;24.29883;947.4739;;;;
2023/02/15 10:55:10;;;;;;;1.7;0.8;;;;;;;19.58;23.87207;947.4885;;;;
2023/02/15 10:57:35;;;;;;;6.3;1.2;;;;;;;19.65;23.78223;947.4037;;;;
2023/02/15 11:00:01;;;;;;;5.7;0.9;;;;;;;19.98;23.53223;947.3939;;;;
2023/02/15 11:02:27;;;;;;;2.7;0.8;;;;;;;19.92;23.65723;947.2919;;;;
2023/02/15 11:04:56;;;;;;;2.3;0.9;;;;;;;20.46;22.57617;947.2674;;;;
2023/02/15 11:07:25;;;;;;;2.8;0.9;;;;;;;20.88;22.7959;947.2098;;;;
2023/02/15 11:09:55;;;;;;;2.4;1;;;;;;;21.46;22.62695;947.1938;;;;
2023/02/15 11:12:20;;;;;;;2.5;0.9;;;;;;;21.49;22.00879;947.1381;;;;
2023/02/15 11:14:49;;;;;;;1;0.8;;;;;;;22.1;21.5;947.1507;;;;
2023/02/15 11:17:15;;;;;;;1.1;0.7;;;;;;;21.41;21.45508;947.123;;;;
2023/02/15 11:19:47;;;;;;;1.5;0.8;;;;;;;21.75;21.7168;947.0574;;;;
2023/02/15 11:22:13;;;;;;;2.6;0.7;;;;;;;22.08;20.72461;947.0449;;;;
2023/02/15 11:24:38;;;;;;;2.3;0.8;;;;;;;22.41;20.74023;946.9521;;;;
2023/02/15 11:27:09;;;;;;;1.1;0.6;;;;;;;22.35;20.6084;946.9119;;;;
2023/02/15 11:29:36;;;;;;;1.4;0.6;;;;;;;21.89;21.10254;946.9097;;;;
2023/02/15 11:32:03;;;;;;;2;0.9;;;;;;;22.29;20.92188;946.8329;;;;
2023/02/15 11:34:28;;;;;;;1.6;0.6;;;;;;;22.13;21.05566;946.8126;;;;
2023/02/15 11:36:54;;;;;;;1.2;0.7;;;;;;;22.55;21.7207;946.7941;;;;
2023/02/15 11:39:19;;;;;;;1.7;1;;;;;;;22.99;20.09766;946.7739;;;;
2023/02/15 11:41:53;;;;;;;3.1;1;;;;;;;22.97;21.48242;946.7458;;;;
2023/02/15 11:44:15;;;;;;;2.1;0.9;;;;;;;22.44;22.18457;946.6595;;;;
2023/02/15 11:46:40;;;;;;;4.3;0.9;;;;;;;23.62;21.02051;946.6658;;;;
2023/02/15 11:49:05;;;;;;;2.2;1.4;;;;;;;24.27;20.34375;946.6669;;;;
2023/02/15 11:51:32;;;;;;;3.3;1.1;;;;;;;25.37;20.13477;946.6136;;;;
2023/02/15 11:53:57;;;;;;;1.1;1;;;;;;;25.97;18.49414;946.5079;;;;
2023/02/15 11:56:22;;;;;;;0.9;0.7;;;;;;;26.43;17.63672;946.5336;;;;
2023/02/15 11:58:47;;;;;;;1.2;0.8;;;;;;;26.71;17.86133;946.4536;;;;
2023/02/15 12:01:15;;;;;;;0.7;0.7;;;;;;;26.88;17.84473;946.4322;;;;
2023/02/15 12:03:46;;;;;;;1.1;0.7;;;;;;;25.88;18.21875;946.378;;;;
2023/02/15 12:06:10;;;;;;;0.8;0.6;;;;;;;26.94;16.99316;946.3365;;;;
2023/02/15 12:08:35;;;;;;;1;0.8;;;;;;;28.63;15.23828;946.3225;;;;
2023/02/15 12:11:00;;;;;;;1.1;0.5;;;;;;;29.01;15.70313;946.3287;;;;
2023/02/15 12:13:25;;;;;;;1.9;0.7;;;;;;;30.2;15.39844;946.3431;;;;
2023/02/15 12:15:50;;;;;;;1;0.6;;;;;;;31.44;14.49512;946.2732;;;;
2023/02/15 12:18:31;;;;;;;0.9;0.6;;;;;;;32.01;14.12891;946.2919;;;;
2023/02/15 12:21:02;;;;;;;0.7;0.4;;;;;;;33.06;13.24902;946.2264;;;;
2023/02/15 12:23:28;;;;;;;1.7;0.7;;;;;;;33.56;13.54004;946.1648;;;;
2023/02/15 12:25:55;;;;;;;1.3;0.8;;;;;;;31.11;15.47656;946.1383;;;;
2023/02/15 12:28:20;;;;;;;0.5;0.5;;;;;;;33.87;13.29688;946.0947;;;;
2023/02/15 12:30:45;;;;;;;1.2;0.6;;;;;;;35;12.17188;946.0941;;;;
2023/02/15 12:33:10;;;;;;;0.7;0.6;;;;;;;36.38;11.72461;946.1019;;;;
2023/02/15 12:35:36;;;;;;;0.8;0.7;;;;;;;36.08;11.46289;946.0339;;;;
2023/02/15 12:38:04;;;;;;;1.2;0.8;;;;;;;36.58;11.16113;946.0302;;;;
2023/02/15 12:40:33;;;;;;;1.5;0.7;;;;;;;36.26;11.06836;945.9805;;;;
2023/02/15 12:43:08;;;;;;;0.5;0.5;;;;;;;35.87;11.59082;945.9235;;;;
2023/02/15 12:45:34;;;;;;;0.9;0.7;;;;;;;36.35;11.49414;945.9297;;;;
2023/02/15 12:47:59;;;;;;;1.1;0.8;;;;;;;37.57;10.50488;945.8219;;;;
2023/02/15 12:50:31;;;;;;;1.3;0.6;;;;;;;37.63;10.34863;945.8577;;;;
2023/02/15 12:52:53;;;;;;;1.3;0.7;;;;;;;34.92;11.44531;945.7878;;;;
2023/02/15 12:55:23;;;;;;;1.1;0.7;;;;;;;33.01;12.71875;945.7032;;;;
2023/02/15 12:57:50;;;;;;;0.7;0.7;;;;;;;33.63;14.98535;945.7319;;;;
2023/02/15 13:00:20;;;;;;;1.3;0.6;;;;;;;34.19;11.83691;945.6464;;;;
2023/02/15 13:02:53;;;;;;;0.6;0.6;;;;;;;33.95;12.32422;945.6649;;;;
2023/02/15 13:05:23;;;;;;;1.1;0.7;;;;;;;32.97;12.57422;945.6573;;;;
2023/02/15 13:07:46;;;;;;;0.9;0.7;;;;;;;30.77;13.92383;945.63;;;;
2023/02/15 13:10:16;;;;;;;1.1;0.8;;;;;;;30.82;13.78125;945.6163;;;;
2023/02/15 13:12:47;;;;;;;0.6;0.6;;;;;;;31.24;13.92578;945.5919;;;;
2023/02/15 13:15:21;;;;;;;0.7;0.7;;;;;;;30.19;15.11133;945.5597;;;;
2023/02/15 13:17:54;;;;;;;1.1;0.9;;;;;;;31.66;13.66309;945.5557;;;;
2023/02/15 13:20:22;;;;;;;0.8;0.8;;;;;;;31.73;14.00098;945.5711;;;;
2023/02/15 13:22:46;;;;;;;3.4;1.7;;;;;;;29.48;15.25488;945.4868;;;;
2023/02/15 13:25:11;;;;;;;1.1;1;;;;;;;30.38;14.66406;945.4694;;;;
2023/02/15 13:27:36;;;;;;;1.6;1.2;;;;;;;33.32;12.78809;945.4745;;;;
2023/02/15 13:30:02;;;;;;;1;0.8;;;;;;;34.21;12.40332;945.4558;;;;
2023/02/15 13:32:31;;;;;;;0.8;0.8;;;;;;;35.62;11.72949;945.4716;;;;
2023/02/15 13:35:00;;;;;;;0.6;0.6;;;;;;;36.27;11.3584;945.4625;;;;
2023/02/15 13:37:26;;;;;;;1.2;0.7;;;;;;;35.39;11.71094;945.4658;;;;
2023/02/15 13:39:51;;;;;;;2.9;1.2;;;;;;;34.82;12.08203;945.4007;;;;
2023/02/15 13:42:24;;;;;;;1.6;1.3;;;;;;;35.01;11.90625;945.3922;;;;
2023/02/15 13:44:52;;;;;;;3.1;1.6;;;;;;;34.22;11.82617;945.3995;;;;
2023/02/15 13:47:17;;;;;;;1.3;1;;;;;;;35.45;12.93262;945.4272;;;;
2023/02/15 13:49:45;;;;;;;1.1;0.9;;;;;;;35.99;11.30371;945.4324;;;;
2023/02/15 13:52:11;;;;;;;1.3;1;;;;;;;35.89;11.05957;945.3813;;;;
2023/02/15 13:54:36;;;;;;;1.2;1.1;;;;;;;34.33;12.06934;945.3686;;;;
2023/02/15 13:57:02;;;;;;;1.2;0.9;;;;;;;35.5;11.56934;945.3491;;;;
2023/02/15 13:59:27;;;;;;;1;0.9;;;;;;;34.66;11.94531;945.3356;;;;
2023/02/15 14:01:52;;;;;;;1.8;1.2;;;;;;;35.23;11.65918;945.3533;;;;
2023/02/15 14:04:17;;;;;;;2;1.7;;;;;;;35.79;11.31055;945.3892;;;;
2023/02/15 14:06:42;;;;;;;1.3;1.2;;;;;;;35.9;11.38574;945.4253;;;;
2023/02/15 14:09:07;;;;;;;1.4;1.3;;;;;;;35.76;11.43066;945.407;;;;
2023/02/15 14:11:34;;;;;;;1.4;1;;;;;;;35.22;11.79102;945.4266;;;;
2023/02/15 14:13:59;;;;;;;1.5;1.2;;;;;;;35.1;11.9209;945.3552;;;;
2023/02/15 14:16:27;;;;;;;2.5;1.9;;;;;;;35.16;11.93457;945.3972;;;;
2023/02/15 14:18:55;;;;;;;2.6;1.7;;;;;;;35.83;11.68652;945.3925;;;;
2023/02/15 14:21:21;;;;;;;1.3;1.1;;;;;;;36.1;11.59668;945.385;;;;
2023/02/15 14:23:46;;;;;;;2.2;1.3;;;;;;;36.16;11.58594;945.3154;;;;
2023/02/15 14:26:11;;;;;;;1.8;1.5;;;;;;;35.62;11.9834;945.3926;;;;
2023/02/15 14:28:38;;;;;;;1.4;0.9;;;;;;;33.05;13.2373;945.337;;;;
2023/02/15 14:31:06;;;;;;;3;2.6;;;;;;;33.45;13.39258;945.3847;;;;
2023/02/15 14:33:30;;;;;;;2.2;1.1;;;;;;;33.78;13.11426;945.353;;;;
2023/02/15 14:36:02;;;;;;;1.8;1;;;;;;;33.8;13.13867;945.2849;;;;
2023/02/15 14:38:27;;;;;;;2.1;1.2;;;;;;;33.63;13.31348;945.3317;;;;
2023/02/15 14:41:01;;;;;;;1.8;1.1;;;;;;;33.34;13.4502;945.363;;;;
2023/02/15 14:43:25;;;;;;;1.1;1;;;;;;;33.66;13.1582;945.3318;;;;
2023/02/15 14:45:50;;;;;;;1.5;1.3;;;;;;;33.17;13.43262;945.3164;;;;
2023/02/15 14:48:15;;;;;;;1.7;1.2;;;;;;;33.62;13.20508;945.3387;;;;
2023/02/15 14:50:40;;;;;;;1.5;1.1;;;;;;;33.48;13.27344;945.3219;;;;
2023/02/15 14:53:08;;;;;;;1.3;1.2;;;;;;;32.57;13.77441;945.3214;;;;
2023/02/15 14:55:33;;;;;;;1.9;1;;;;;;;33.05;13.35645;945.3422;;;;
2023/02/15 14:57:58;;;;;;;1;0.9;;;;;;;32.79;13.55371;945.3508;;;;
2023/02/15 15:00:25;;;;;;;1;0.9;;;;;;;32.82;13.65039;945.2758;;;;
2023/02/15 15:02:50;;;;;;;1.9;1.1;;;;;;;32.74;13.79199;945.3389;;;;
2023/02/15 15:05:22;;;;;;;1.4;1.2;;;;;;;32.4;13.8291;945.3481;;;;
2023/02/15 15:07:47;;;;;;;2.1;1.3;;;;;;;32.56;13.66699;945.3124;;;;
2023/02/15 15:10:20;;;;;;;4.4;2.3;;;;;;;31.96;14.00781;945.3284;;;;
2023/02/15 15:12:44;;;;;;;3.6;1.2;;;;;;;32.17;14.11035;945.3388;;;;
2023/02/15 15:15:17;;;;;;;8.4;4.6;;;;;;;31.61;14.75195;945.3698;;;;
2023/02/15 15:17:47;;;;;;;6.7;3.3;;;;;;;30.99;15.28125;945.3843;;;;
2023/02/15 15:20:18;;;;;;;6.5;3.7;;;;;;;30.56;15.45801;945.3451;;;;
2023/02/15 15:22:50;;;;;;;4.2;2.4;;;;;;;29.86;15.81641;945.348;;;;
2023/02/15 15:25:15;;;;;;;13.8;7.5;;;;;;;29.02;16.57227;945.3481;;;;
2023/02/15 15:27:42;;;;;;;9;4.8;;;;;;;28.4;16.88184;945.3491;;;;
2023/02/15 15:30:17;;;;;;;8.5;4.6;;;;;;;27.94;17.24512;945.4211;;;;